createdAt,value
2023-05-23T00:02:25.040Z,62.40
2023-05-23T00:04:58.459Z,62.60
2023-05-23T00:07:27.350Z,62.90
2023-05-23T00:09:55.488Z,63.10
2023-05-23T00:12:23.552Z,63.20
2023-05-23T00:14:53.557Z,63.50
2023-05-23T00:17:25.457Z,63.70
2023-05-23T00:19:56.053Z,63.80
2023-05-23T00:22:24.300Z,64.10
2023-05-23T00:24:53.657Z,64.10
2023-05-23T00:27:21.740Z,64.20
2023-05-23T00:29:49.866Z,64.00
2023-05-23T00:32:17.942Z,64.20
2023-05-23T00:34:46.817Z,64.00
2023-05-23T00:37:16.500Z,64.10
2023-05-23T00:39:44.614Z,64.20
2023-05-23T00:42:12.714Z,64.00
2023-05-23T00:44:40.804Z,63.80
2023-05-23T00:47:09.294Z,63.70
2023-05-23T00:49:37.421Z,63.60
2023-05-23T00:52:06.648Z,63.70
2023-05-23T00:54:37.603Z,63.70
2023-05-23T00:57:06.365Z,63.90
2023-05-23T00:59:37.130Z,63.80
2023-05-23T01:02:05.713Z,63.90
2023-05-23T01:04:34.333Z,64.00
2023-05-23T01:07:02.864Z,64.10
2023-05-23T01:09:31.788Z,64.20
2023-05-23T01:12:16.870Z,64.40
2023-05-23T01:14:52.720Z,64.80
2023-05-23T01:17:27.060Z,64.80
2023-05-23T01:20:04.934Z,64.90
2023-05-23T01:22:46.823Z,64.90
2023-05-23T01:25:24.204Z,65.10
2023-05-23T01:27:56.945Z,63.90
2023-05-23T01:30:26.853Z,64.60
2023-05-23T01:32:56.692Z,64.70
2023-05-23T01:35:27.418Z,64.90
2023-05-23T01:37:55.791Z,64.90
2023-05-23T01:40:24.849Z,64.90
2023-05-23T01:42:57.266Z,64.80
2023-05-23T01:45:27.672Z,64.60
2023-05-23T01:47:57.017Z,64.50
2023-05-23T01:50:25.955Z,64.50
2023-05-23T01:52:54.668Z,65.40
2023-05-23T01:55:24.350Z,64.70
2023-05-23T01:57:53.477Z,64.80
2023-05-23T02:00:23.411Z,64.80
2023-05-23T02:02:51.640Z,65.00
2023-05-23T02:05:19.846Z,64.90
2023-05-23T02:07:47.949Z,64.70
2023-05-23T02:10:16.056Z,64.70
2023-05-23T02:12:44.279Z,64.60
2023-05-23T02:15:12.746Z,64.50
2023-05-23T02:17:43.059Z,64.40
2023-05-23T02:20:11.933Z,64.30
2023-05-23T02:22:40.326Z,64.10
2023-05-23T02:25:09.541Z,64.00
2023-05-23T02:27:37.666Z,63.90
2023-05-23T02:30:06.619Z,63.60
2023-05-23T02:32:35.089Z,63.20
2023-05-23T02:35:05.507Z,63.00
2023-05-23T02:37:33.569Z,63.10
2023-05-23T02:40:01.657Z,63.10
2023-05-23T02:42:29.741Z,63.20
2023-05-23T02:44:57.907Z,63.30
2023-05-23T02:47:26.022Z,63.40
2023-05-23T02:49:54.153Z,63.60
2023-05-23T02:52:23.767Z,63.70
2023-05-23T02:54:51.836Z,63.80
2023-05-23T02:57:19.917Z,63.70
2023-05-23T02:59:48.017Z,63.60
2023-05-23T03:02:16.131Z,63.60
2023-05-23T03:04:44.223Z,63.60
2023-05-23T03:07:24.530Z,63.60
2023-05-23T03:09:57.798Z,63.70
2023-05-23T03:12:25.935Z,63.70
2023-05-23T03:14:54.012Z,63.70
2023-05-23T03:17:22.197Z,63.80
2023-05-23T03:19:50.300Z,63.90
2023-05-23T03:22:18.378Z,63.90
2023-05-23T03:24:46.451Z,64.10
2023-05-23T03:27:16.010Z,64.10
2023-05-23T03:29:44.063Z,64.10
2023-05-23T03:32:12.179Z,64.00
2023-05-23T03:34:40.280Z,63.80
2023-05-23T03:37:08.410Z,63.80
2023-05-23T03:39:38.787Z,63.80
2023-05-23T03:42:08.385Z,63.80
2023-05-23T03:44:37.827Z,64.00
2023-05-23T03:47:07.181Z,63.90
2023-05-23T03:49:35.425Z,63.90
2023-05-23T03:52:03.507Z,63.80
2023-05-23T03:54:31.587Z,64.00
2023-05-23T03:56:59.668Z,64.20
2023-05-23T03:59:27.767Z,64.40
2023-05-23T04:01:58.927Z,64.50
2023-05-23T04:04:27.159Z,64.50
2023-05-23T04:06:55.853Z,64.40
2023-05-23T04:09:24.021Z,64.50
2023-05-23T04:11:52.991Z,64.30
2023-05-23T04:14:22.487Z,64.20
2023-05-23T04:16:50.692Z,64.00
2023-05-23T04:19:20.321Z,63.90
2023-05-23T04:21:48.405Z,63.80
2023-05-23T04:24:16.460Z,63.50
2023-05-23T04:26:44.502Z,63.30
2023-05-23T04:29:13.190Z,62.90
2023-05-23T04:31:41.467Z,62.70
2023-05-23T04:34:09.770Z,62.50
2023-05-23T04:36:39.248Z,62.30
2023-05-23T04:39:07.386Z,62.20
2023-05-23T04:41:36.638Z,62.00
2023-05-23T04:44:06.122Z,61.80
2023-05-23T04:46:34.379Z,61.70
2023-05-23T04:49:02.501Z,61.50
2023-05-23T04:51:30.639Z,61.40
2023-05-23T04:54:00.133Z,61.10
2023-05-23T04:56:29.028Z,61.10
2023-05-23T04:58:57.138Z,61.00
2023-05-23T05:01:25.492Z,60.80
2023-05-23T05:03:53.736Z,60.70
2023-05-23T05:06:22.221Z,60.60
2023-05-23T05:08:50.435Z,60.60
2023-05-23T05:11:20.008Z,60.40
2023-05-23T05:13:48.095Z,60.40
2023-05-23T05:16:16.242Z,60.40
2023-05-23T05:18:44.356Z,60.30
2023-05-23T05:21:12.424Z,60.30
2023-05-23T05:23:41.004Z,60.40
2023-05-23T05:26:09.284Z,60.50
2023-05-23T05:28:38.799Z,60.40
2023-05-23T05:31:07.091Z,60.50
2023-05-23T05:33:36.188Z,60.60
2023-05-23T05:36:04.676Z,60.70
2023-05-23T05:38:32.735Z,60.70
2023-05-23T05:41:01.227Z,60.80
2023-05-23T05:43:29.379Z,60.80
2023-05-23T05:45:58.877Z,60.80
2023-05-23T05:48:26.995Z,60.80
2023-05-23T05:50:55.064Z,60.80
2023-05-23T05:53:23.133Z,60.80
2023-05-23T05:55:51.211Z,60.70
2023-05-23T05:58:19.280Z,60.80
2023-05-23T06:00:47.645Z,60.80
2023-05-23T06:03:17.860Z,60.90
2023-05-23T06:05:46.064Z,60.90
2023-05-23T06:08:14.208Z,60.90
2023-05-23T06:10:42.620Z,60.80
2023-05-23T06:13:11.327Z,60.80
2023-05-23T06:15:39.495Z,60.70
2023-05-23T06:18:07.696Z,60.70
2023-05-23T06:20:37.230Z,60.60
2023-05-23T06:23:05.685Z,60.50
2023-05-23T06:25:33.886Z,60.60
2023-05-23T06:28:01.999Z,60.50
2023-05-23T06:30:30.605Z,60.70
2023-05-23T06:32:58.853Z,60.50
2023-05-23T06:35:26.949Z,60.50
2023-05-23T06:37:56.386Z,60.50
2023-05-23T06:40:24.481Z,60.20
2023-05-23T06:42:52.576Z,60.00
2023-05-23T06:45:20.637Z,59.90
2023-05-23T06:47:49.392Z,59.80
2023-05-23T06:50:19.874Z,59.70
2023-05-23T06:52:48.005Z,59.70
2023-05-23T06:55:19.391Z,59.60
2023-05-23T06:57:50.530Z,59.70
2023-05-23T07:00:19.601Z,59.60
2023-05-23T07:02:48.667Z,59.70
2023-05-23T07:05:17.522Z,59.80
2023-05-23T07:07:45.904Z,59.80
2023-05-23T07:10:13.983Z,59.80
2023-05-23T07:12:43.482Z,60.00
2023-05-23T07:15:13.753Z,60.10
2023-05-23T07:17:41.902Z,60.20
2023-05-23T07:20:10.872Z,60.40
2023-05-23T07:22:38.997Z,60.50
2023-05-23T07:25:08.453Z,60.60
2023-05-23T07:27:36.676Z,60.70
2023-05-23T07:30:09.546Z,60.70
2023-05-23T07:32:37.695Z,60.80
2023-05-23T07:35:06.610Z,60.90
2023-05-23T07:37:34.800Z,60.90
2023-05-23T07:40:02.894Z,61.00
2023-05-23T07:42:31.036Z,61.10
2023-05-23T07:44:59.076Z,61.10
2023-05-23T07:47:28.640Z,61.10
2023-05-23T07:49:56.772Z,61.20
2023-05-23T07:52:24.861Z,61.00
2023-05-23T07:54:52.922Z,61.00
2023-05-23T07:57:21.057Z,61.60
2023-05-23T07:59:49.132Z,60.70
2023-05-23T08:02:17.258Z,60.70
2023-05-23T08:04:47.698Z,60.50
2023-05-23T08:07:18.608Z,60.20
2023-05-23T08:09:47.465Z,60.40
2023-05-23T08:12:15.590Z,60.20
2023-05-23T08:17:17.694Z,60.00
2023-05-23T08:19:48.018Z,59.90
2023-05-23T08:22:16.173Z,59.40
2023-05-23T08:24:44.251Z,59.20
2023-05-23T08:27:12.313Z,59.20
2023-05-23T08:29:41.306Z,59.00
2023-05-23T08:32:09.472Z,59.00
2023-05-23T08:34:37.592Z,58.90
2023-05-23T08:37:07.577Z,58.80
2023-05-23T08:39:35.977Z,58.80
2023-05-23T08:42:04.244Z,58.80
2023-05-23T08:44:32.433Z,58.80
2023-05-23T08:47:05.867Z,58.80
2023-05-23T08:49:34.145Z,58.80
2023-05-23T08:52:04.693Z,58.90
2023-05-23T08:54:34.480Z,57.90
2023-05-23T08:57:02.999Z,57.70
2023-05-23T08:59:32.685Z,57.70
2023-05-23T09:02:01.754Z,57.90
2023-05-23T09:04:32.347Z,57.90
2023-05-23T09:07:01.248Z,57.50
2023-05-23T09:09:29.432Z,57.30
2023-05-23T09:12:01.040Z,57.00
2023-05-23T09:14:30.470Z,57.00
2023-05-23T09:17:04.635Z,57.20
2023-05-23T09:19:33.385Z,57.20
2023-05-23T09:22:03.879Z,57.20
2023-05-23T09:24:39.615Z,57.40
2023-05-23T09:27:09.569Z,57.50
2023-05-23T09:29:39.660Z,57.70
2023-05-23T09:32:14.352Z,57.60
2023-05-23T09:34:43.310Z,57.60
2023-05-23T09:37:18.264Z,57.30
2023-05-23T09:39:48.756Z,57.00
2023-05-23T09:42:22.640Z,56.90
2023-05-23T09:44:50.906Z,56.60
2023-05-23T09:47:19.127Z,56.30
2023-05-23T09:49:48.182Z,56.30
2023-05-23T09:52:16.266Z,56.40
2023-05-23T09:54:46.868Z,56.40
2023-05-23T09:57:16.929Z,56.50
2023-05-23T09:59:54.305Z,56.10
2023-05-23T10:02:43.580Z,55.90
2023-05-23T10:05:17.223Z,55.80
2023-05-23T10:07:45.807Z,55.40
2023-05-23T10:10:14.653Z,55.40
2023-05-23T10:12:48.298Z,55.50
2023-05-23T10:15:20.111Z,55.50
2023-05-23T10:17:59.494Z,55.40
2023-05-23T10:20:32.158Z,55.70
2023-05-23T10:23:01.560Z,55.30
2023-05-23T10:25:30.187Z,55.60
2023-05-23T10:28:02.482Z,55.50
2023-05-23T10:30:33.656Z,55.40
2023-05-23T10:33:03.291Z,55.30
2023-05-23T10:35:42.362Z,55.40
2023-05-23T10:38:20.067Z,55.20
2023-05-23T10:40:52.025Z,55.20
2023-05-23T10:43:26.461Z,55.30
2023-05-23T10:45:56.123Z,55.40
2023-05-23T10:48:35.100Z,55.60
2023-05-23T10:51:05.422Z,55.60
2023-05-23T10:53:35.888Z,55.70
2023-05-23T10:56:07.240Z,55.80
2023-05-23T10:58:36.701Z,55.90
2023-05-23T11:01:09.637Z,55.90
2023-05-23T11:03:52.939Z,55.90
2023-05-23T11:06:34.027Z,56.00
2023-05-23T11:09:07.535Z,55.70
2023-05-23T11:11:55.482Z,55.50
2023-05-23T11:14:34.118Z,55.50
2023-05-23T11:17:17.652Z,55.60
2023-05-23T11:19:58.043Z,55.70
2023-05-23T11:22:29.879Z,55.40
2023-05-23T11:24:59.217Z,55.40
2023-05-23T11:27:32.388Z,55.50
2023-05-23T11:30:09.488Z,55.50
2023-05-23T11:32:38.999Z,55.50
2023-05-23T11:35:10.583Z,55.10
2023-05-23T11:37:40.028Z,55.10
2023-05-23T11:40:29.200Z,55.00
2023-05-23T11:42:58.068Z,54.80
2023-05-23T11:45:26.816Z,54.60
2023-05-23T11:47:56.485Z,54.30
2023-05-23T11:50:25.404Z,53.90
2023-05-23T11:52:55.569Z,54.10
2023-05-23T11:55:24.547Z,54.00
2023-05-23T11:57:52.993Z,53.90
2023-05-23T12:00:21.586Z,53.90
2023-05-23T12:02:49.992Z,53.90
2023-05-23T12:05:19.571Z,54.20
2023-05-23T12:07:48.728Z,54.10
2023-05-23T12:10:17.683Z,54.00
2023-05-23T12:12:46.461Z,53.80
2023-05-23T12:15:15.122Z,53.70
2023-05-23T12:17:46.249Z,53.70
2023-05-23T12:20:14.794Z,53.70
2023-05-23T12:22:44.604Z,53.80
2023-05-23T12:25:12.799Z,53.30
2023-05-23T12:27:44.068Z,53.40
2023-05-23T12:30:14.936Z,53.20
2023-05-23T12:32:44.829Z,53.30
2023-05-23T12:35:14.180Z,53.30
2023-05-23T12:37:45.895Z,53.50
2023-05-23T12:40:14.759Z,53.30
2023-05-23T12:42:52.932Z,53.70
2023-05-23T12:45:21.636Z,53.10
2023-05-23T12:47:52.181Z,53.20
2023-05-23T12:50:21.922Z,53.40
2023-05-23T12:52:51.373Z,53.30
2023-05-23T12:55:19.534Z,53.10
2023-05-23T12:57:47.591Z,53.20
2023-05-23T13:00:16.622Z,53.10
2023-05-23T13:02:44.802Z,53.40
2023-05-23T13:05:12.976Z,53.40
2023-05-23T13:07:41.291Z,53.50
2023-05-23T13:10:11.992Z,53.60
2023-05-23T13:12:40.102Z,53.60
2023-05-23T13:15:09.680Z,53.80
2023-05-23T13:17:37.804Z,53.70
2023-05-23T13:20:07.525Z,53.30
2023-05-23T13:22:35.836Z,53.20
2023-05-23T13:25:03.958Z,53.20
2023-05-23T13:27:33.389Z,53.20
2023-05-23T13:30:01.453Z,53.30
2023-05-23T13:32:29.568Z,53.60
2023-05-23T13:34:57.739Z,53.70
2023-05-23T13:37:26.010Z,53.40
2023-05-23T13:39:54.090Z,53.20
2023-05-23T13:42:22.175Z,53.30
2023-05-23T13:44:51.826Z,53.50
2023-05-23T13:47:20.010Z,53.00
2023-05-23T13:49:48.052Z,52.90
2023-05-23T13:52:16.156Z,53.00
2023-05-23T13:54:44.443Z,52.80
2023-05-23T13:57:12.577Z,52.80
2023-05-23T13:59:40.671Z,52.70
2023-05-23T14:02:10.353Z,52.60
2023-05-23T14:04:38.591Z,52.50
2023-05-23T14:07:06.772Z,52.40
2023-05-23T14:09:34.834Z,52.50
2023-05-23T14:12:02.916Z,53.00
2023-05-23T14:14:30.966Z,53.00
2023-05-23T14:16:59.204Z,52.80
2023-05-23T14:19:28.782Z,52.80
2023-05-23T14:21:56.883Z,52.90
2023-05-23T14:24:24.941Z,52.80
2023-05-23T14:26:53.171Z,52.60
2023-05-23T14:29:21.456Z,52.70
2023-05-23T14:31:49.619Z,52.70
2023-05-23T14:34:17.766Z,52.70
2023-05-23T14:36:47.171Z,52.60
2023-05-23T14:39:15.965Z,52.30
2023-05-23T14:41:44.662Z,52.50
2023-05-23T14:44:12.870Z,52.30
2023-05-23T14:46:42.023Z,52.30
2023-05-23T14:49:10.106Z,52.40
2023-05-23T14:51:47.589Z,52.20
2023-05-23T14:54:20.214Z,52.40
2023-05-23T14:56:49.440Z,52.40
2023-05-23T14:59:19.374Z,51.70
2023-05-23T15:01:47.523Z,51.50
2023-05-23T15:04:15.851Z,51.10
2023-05-23T15:06:44.041Z,51.20
2023-05-23T15:09:12.779Z,51.00
2023-05-23T15:11:44.490Z,50.90
2023-05-23T15:14:12.546Z,50.70
2023-05-23T15:16:40.833Z,50.80
2023-05-23T15:19:09.005Z,50.60
2023-05-23T15:21:37.240Z,50.80
2023-05-23T15:24:05.625Z,51.00
2023-05-23T15:26:33.683Z,51.20
2023-05-23T15:29:03.121Z,51.20
2023-05-23T15:31:31.206Z,50.90
2023-05-23T15:33:59.303Z,50.70
2023-05-23T15:36:27.349Z,50.80
2023-05-23T15:38:55.392Z,50.70
2023-05-23T15:41:23.446Z,50.60
2023-05-23T15:43:51.513Z,51.00
2023-05-23T15:46:21.133Z,51.00
2023-05-23T15:48:49.235Z,51.00
2023-05-23T15:51:17.494Z,50.90
2023-05-23T15:53:59.777Z,50.80
2023-05-23T15:56:29.324Z,50.70
2023-05-23T15:58:57.488Z,50.70
2023-05-23T16:01:27.040Z,50.80
2023-05-23T16:03:55.970Z,50.70
2023-05-23T16:06:25.280Z,50.90
2023-05-23T16:08:53.354Z,50.80
2023-05-23T16:11:22.814Z,50.70
2023-05-23T16:13:50.968Z,50.70
2023-05-23T16:16:19.109Z,50.80
2023-05-23T16:18:48.675Z,50.40
2023-05-23T16:21:20.506Z,50.20
2023-05-23T16:23:49.213Z,49.60
2023-05-23T16:26:18.614Z,49.10
2023-05-23T16:28:46.796Z,48.60
2023-05-23T16:31:16.881Z,48.50
2023-05-23T16:33:45.881Z,48.70
2023-05-23T16:36:15.389Z,48.50
2023-05-23T16:38:43.461Z,48.30
2023-05-23T16:41:11.525Z,48.30
2023-05-23T16:43:39.609Z,47.90
2023-05-23T16:46:07.929Z,47.90
2023-05-23T16:48:36.137Z,47.80
2023-05-23T16:51:04.214Z,47.90
2023-05-23T16:53:33.682Z,48.10
2023-05-23T16:56:01.759Z,48.00
2023-05-23T16:58:29.815Z,48.30
2023-05-23T17:00:57.892Z,48.10
2023-05-23T17:03:26.361Z,48.10
2023-05-23T17:05:54.789Z,48.30
2023-05-23T17:08:23.084Z,48.50
2023-05-23T17:10:52.511Z,48.40
2023-05-23T17:13:20.760Z,48.00
2023-05-23T17:15:48.866Z,47.90
2023-05-23T17:18:17.259Z,47.80
2023-05-23T17:20:45.472Z,47.70
2023-05-23T17:23:13.594Z,47.70
2023-05-23T17:25:41.871Z,47.90
2023-05-23T17:28:11.934Z,48.00
2023-05-23T17:30:40.038Z,47.90
2023-05-23T17:33:08.779Z,47.80
2023-05-23T17:35:36.856Z,47.70
2023-05-23T17:38:04.932Z,47.90
2023-05-23T17:40:33.036Z,48.10
2023-05-23T17:43:01.129Z,48.20
2023-05-23T17:45:31.488Z,48.30
2023-05-23T17:48:03.472Z,48.40
2023-05-23T17:50:31.850Z,48.40
2023-05-23T17:53:01.498Z,48.30
2023-05-23T17:55:30.904Z,48.10
2023-05-23T17:57:59.037Z,47.90
2023-05-23T18:00:27.160Z,47.70
2023-05-23T18:02:56.659Z,47.80
2023-05-23T18:05:24.762Z,47.90
2023-05-23T18:07:53.133Z,48.00
2023-05-23T18:10:21.268Z,48.00
2023-05-23T18:12:49.343Z,48.10
2023-05-23T18:15:17.476Z,48.00
2023-05-23T18:17:45.786Z,48.20
2023-05-23T18:20:15.450Z,48.20
2023-05-23T18:22:43.602Z,48.40
2023-05-23T18:25:11.866Z,48.40
2023-05-23T18:27:39.966Z,48.70
2023-05-23T18:30:09.437Z,48.60
2023-05-23T18:32:37.581Z,48.60
2023-05-23T18:35:06.548Z,48.60
2023-05-23T18:37:36.074Z,48.60
2023-05-23T18:40:04.316Z,48.60
2023-05-23T18:42:32.706Z,48.60
2023-05-23T18:45:00.834Z,48.70
2023-05-23T18:47:28.985Z,48.70
2023-05-23T18:49:57.206Z,48.80
2023-05-23T18:52:25.283Z,48.80
2023-05-23T18:54:54.933Z,48.90
2023-05-23T18:57:23.623Z,48.90
2023-05-23T18:59:52.191Z,49.10
2023-05-23T19:02:20.450Z,49.20
2023-05-23T19:04:48.605Z,49.20
2023-05-23T19:07:16.713Z,49.00
2023-05-23T19:09:44.823Z,48.80
2023-05-23T19:12:14.284Z,48.80
2023-05-23T19:14:42.413Z,48.70
2023-05-23T19:17:10.484Z,48.50
2023-05-23T19:19:38.647Z,48.40
2023-05-23T19:22:07.045Z,48.40
2023-05-23T19:24:35.119Z,48.40
2023-05-23T19:27:03.312Z,48.40
2023-05-23T19:29:32.752Z,48.30
2023-05-23T19:32:00.908Z,48.40
2023-05-23T19:34:29.185Z,48.50
2023-05-23T19:36:57.957Z,48.50
2023-05-23T19:39:26.056Z,48.60
2023-05-23T19:41:54.414Z,48.70
2023-05-23T19:44:22.504Z,48.80
2023-05-23T19:46:52.473Z,49.00
2023-05-23T19:49:20.954Z,49.20
2023-05-23T19:51:49.053Z,49.30
2023-05-23T19:54:17.183Z,49.40
2023-05-23T19:56:45.702Z,49.60
2023-05-23T19:59:13.854Z,49.70
2023-05-23T20:01:41.957Z,49.70
2023-05-23T20:04:13.064Z,49.70
2023-05-23T20:06:41.351Z,49.80
2023-05-23T20:09:09.442Z,50.00
2023-05-23T20:11:37.527Z,50.00
2023-05-23T20:14:05.626Z,50.10
2023-05-23T20:16:33.713Z,50.20
2023-05-23T20:19:01.862Z,50.20
2023-05-23T20:21:31.341Z,50.30
2023-05-23T20:23:59.419Z,50.40
2023-05-23T20:26:27.954Z,50.50
2023-05-23T20:28:56.096Z,50.50
2023-05-23T20:31:24.304Z,50.60
2023-05-23T20:33:52.515Z,50.70
2023-05-23T20:36:20.980Z,50.70
2023-05-23T20:38:50.528Z,50.80
2023-05-23T20:41:18.837Z,50.90
2023-05-23T20:43:48.286Z,50.90
2023-05-23T20:46:16.534Z,51.00
2023-05-23T20:48:44.746Z,51.10
2023-05-23T20:51:13.539Z,51.10
2023-05-23T20:53:41.680Z,51.20
2023-05-23T20:56:11.364Z,51.30
2023-05-23T20:58:40.809Z,51.40
2023-05-23T21:01:08.908Z,51.40
2023-05-23T21:03:37.028Z,51.50
2023-05-23T21:06:05.372Z,51.60
2023-05-23T21:08:34.656Z,51.70
2023-05-23T21:11:02.964Z,51.70
2023-05-23T21:13:32.423Z,51.90
2023-05-23T21:16:00.601Z,51.90
2023-05-23T21:18:28.719Z,51.90
2023-05-23T21:20:56.826Z,52.00
2023-05-23T21:23:24.990Z,52.00
2023-05-23T21:25:54.400Z,52.10
2023-05-23T21:28:22.470Z,52.10
2023-05-23T21:30:52.399Z,52.10
2023-05-23T21:33:21.098Z,52.10
2023-05-23T21:35:49.708Z,52.10
2023-05-23T21:38:17.831Z,52.20
2023-05-23T21:40:46.117Z,52.20
2023-05-23T21:43:14.202Z,52.30
2023-05-23T21:45:42.297Z,52.30
2023-05-23T21:48:11.787Z,52.40
2023-05-23T21:50:40.025Z,52.50
2023-05-23T21:53:08.252Z,52.60
2023-05-23T21:55:36.342Z,52.70
2023-05-23T21:58:05.630Z,52.90
2023-05-23T22:00:33.707Z,53.00
2023-05-23T22:03:02.057Z,53.10
2023-05-23T22:05:31.575Z,53.30
2023-05-23T22:07:59.633Z,53.30
2023-05-23T22:10:27.743Z,53.30
2023-05-23T22:12:55.959Z,53.40
2023-05-23T22:15:24.220Z,53.50
2023-05-23T22:17:52.625Z,53.60
2023-05-23T22:20:22.252Z,53.70
2023-05-23T22:22:52.267Z,53.80
2023-05-23T22:25:21.826Z,53.80
2023-05-23T22:27:49.935Z,53.80
2023-05-23T22:30:18.206Z,53.90
2023-05-23T22:32:46.378Z,53.90
2023-05-23T22:35:14.481Z,53.90
2023-05-23T22:37:42.561Z,54.10
2023-05-23T22:40:12.650Z,54.10
2023-05-23T22:42:40.970Z,54.20
2023-05-23T22:45:10.254Z,54.20
2023-05-23T22:47:40.504Z,54.30
2023-05-23T22:50:09.577Z,54.30
2023-05-23T22:52:38.570Z,54.40
2023-05-23T22:55:08.246Z,54.40
2023-05-23T22:57:37.812Z,62.50
2023-05-23T23:00:08.059Z,64.20
2023-05-23T23:02:36.208Z,63.40
2023-05-23T23:05:05.265Z,61.60
2023-05-23T23:07:33.398Z,60.10
2023-05-23T23:10:01.519Z,59.00
2023-05-23T23:12:29.599Z,58.20
2023-05-23T23:14:59.079Z,56.70
2023-05-23T23:17:27.179Z,54.20
2023-05-23T23:19:55.698Z,53.20
2023-05-23T23:22:23.814Z,52.50
2023-05-23T23:24:52.721Z,52.00
2023-05-23T23:27:22.367Z,51.70
2023-05-23T23:29:50.678Z,51.60
2023-05-23T23:32:20.109Z,51.60
2023-05-23T23:34:48.183Z,51.50
2023-05-23T23:37:16.330Z,51.60
2023-05-23T23:39:44.389Z,51.70
2023-05-23T23:42:12.507Z,51.80
2023-05-23T23:44:40.621Z,51.90
2023-05-23T23:47:08.732Z,52.10
2023-05-23T23:49:38.174Z,52.30
2023-05-23T23:52:07.133Z,52.50
2023-05-23T23:54:35.229Z,52.60
2023-05-23T23:57:03.284Z,52.80
2023-05-23T23:59:31.372Z,52.90
